createdAt,value
2016-12-06T00:00:02.154Z,93.66
2016-12-06T02:10:02.102Z,92.42
2016-12-06T02:15:02.471Z,93.04
2016-12-06T02:20:02.921Z,93.41
2016-12-06T14:10:02.163Z,87.5
2016-12-06T14:15:02.520Z,87.87
2016-12-06T14:20:02.954Z,87.78
2016-12-06T14:25:02.297Z,88.19
2016-12-06T14:30:02.659Z,88.61
2016-12-06T14:35:03.007Z,88.71
2016-12-06T14:40:02.370Z,88.6
2016-12-06T14:45:02.719Z,88.67
2016-12-06T14:50:02.046Z,88.84
2016-12-06T14:55:02.431Z,89.08
2016-12-06T15:00:02.816Z,89.18
2016-12-06T15:05:02.146Z,89.62
2016-12-06T15:10:02.558Z,89.79
2016-12-06T15:15:02.904Z,89.79
2016-12-06T15:20:02.321Z,90.07
2016-12-06T15:25:02.701Z,90.4
2016-12-06T15:30:02.074Z,90.49
2016-12-06T15:35:02.411Z,90.49
2016-12-06T15:40:02.806Z,91.17
2016-12-06T15:45:02.168Z,91.29
2016-12-06T15:50:02.547Z,91.52
2016-12-06T15:55:03.035Z,91.57
2016-12-06T16:00:02.383Z,91.55
2016-12-06T16:05:02.754Z,91.61
2016-12-06T16:10:02.124Z,91.97
2016-12-06T16:15:02.522Z,92.13
2016-12-06T16:20:02.964Z,92.34
2016-12-06T16:25:02.328Z,92.4
2016-12-06T16:30:02.719Z,92.19
2016-12-06T16:35:02.095Z,92.16
2016-12-06T16:40:02.539Z,92.44
2016-12-06T16:45:02.866Z,92.38
2016-12-06T16:50:02.234Z,92.59
2016-12-06T16:55:02.625Z,92.58
2016-12-06T17:00:03.004Z,92.89
2016-12-06T17:05:02.371Z,93.18
2016-12-06T17:10:02.723Z,93.21
2016-12-06T17:15:02.048Z,93.4
2016-12-06T17:20:02.554Z,93.51
2016-12-06T17:25:02.898Z,93.34
2016-12-06T17:40:02.713Z,93.03
2016-12-06T17:45:02.073Z,93.73
2016-12-06T17:50:02.428Z,93.74
2016-12-06T17:55:02.754Z,94.09
2016-12-06T18:00:02.111Z,93.84
2016-12-06T18:05:02.506Z,93.74
2016-12-06T18:10:02.848Z,93.53
2016-12-06T18:15:02.210Z,93.66
2016-12-06T18:20:02.679Z,93.86
2016-12-06T20:20:02.178Z,94.03
2016-12-06T20:25:02.921Z,94.19
2016-12-06T20:30:03.406Z,94.89
2016-12-06T20:35:02.977Z,94.4
2016-12-06T20:40:02.575Z,94.51
2016-12-06T20:45:02.887Z,94.68
2016-12-06T20:50:02.156Z,94.96
2016-12-06T20:55:02.496Z,95.76
2016-12-06T21:00:02.866Z,95.79
2016-12-06T21:05:02.245Z,95.36
